Time;durP1;ratioP1;P1;durP2;ratioP2;P2;SDS_P1;SDS_P2;PMS_P1;PMS_P2;Temp;Humidity;BMP_temperature;BMP_pressure;BME280_temperature;BME280_humidity;BME280_pressure;Samples;Min_cycle;Max_cycle;Signal;HPM_P1;HPM_P2
2022/05/02 00:00:10;;;;;;;5.57;4.70;;;12.30;63.80;;;;;;5074428;28;20040;-59
2022/05/02 00:02:36;;;;;;;5.88;4.85;;;12.20;63.80;;;;;;5074889;28;20024;-59
2022/05/02 00:05:03;;;;;;;7.88;5.57;;;12.20;63.90;;;;;;5074827;28;20025;-59
2022/05/02 00:07:29;;;;;;;9.18;6.07;;;12.10;63.90;;;;;;5074680;28;20107;-59
2022/05/02 00:09:54;;;;;;;8.55;6.68;;;12.10;64.00;;;;;;5074391;28;20174;-59
2022/05/02 00:12:20;;;;;;;9.02;6.57;;;12.00;63.90;;;;;;5066958;28;20040;-59
2022/05/02 00:14:46;;;;;;;8.20;6.65;;;11.90;64.00;;;;;;5060557;28;20480;-59
2022/05/02 00:17:12;;;;;;;9.07;6.43;;;11.90;64.20;;;;;;5074313;28;20044;-59
2022/05/02 00:19:38;;;;;;;7.55;6.28;;;11.90;64.10;;;;;;5074251;28;20033;-59
2022/05/02 00:22:04;;;;;;;7.25;5.95;;;11.80;64.00;;;;;;5074244;28;20380;-59
2022/05/02 00:24:30;;;;;;;11.68;6.70;;;11.80;63.90;;;;;;5072947;28;20049;-59
2022/05/02 00:26:56;;;;;;;6.70;5.97;;;11.80;63.90;;;;;;5073281;28;20028;-59
2022/05/02 00:29:22;;;;;;;7.93;5.63;;;11.80;64.60;;;;;;5069500;28;20037;-59
2022/05/02 00:31:48;;;;;;;7.18;6.13;;;11.90;64.10;;;;;;5074092;28;20498;-59
2022/05/02 00:34:13;;;;;;;7.63;6.03;;;11.90;64.10;;;;;;5073833;28;20028;-59
2022/05/02 00:36:39;;;;;;;7.03;5.75;;;11.90;63.90;;;;;;5073923;28;20395;-59
2022/05/02 00:39:05;;;;;;;8.15;6.18;;;11.90;63.70;;;;;;5074211;28;20027;-59
2022/05/02 00:41:31;;;;;;;7.80;4.88;;;11.90;63.60;;;;;;5073872;28;20099;-59
2022/05/02 00:43:56;;;;;;;6.03;5.00;;;11.90;63.60;;;;;;5074153;28;20308;-59
2022/05/02 00:46:24;;;;;;;8.10;5.03;;;11.90;63.50;;;;;;5068895;28;20400;-59
2022/05/02 00:48:50;;;;;;;8.25;5.75;;;12.00;63.60;;;;;;5073717;28;20028;-59
2022/05/02 00:51:17;;;;;;;6.40;5.25;;;12.00;63.60;;;;;;5073831;28;20476;-59
2022/05/02 00:53:45;;;;;;;6.05;4.90;;;12.00;63.60;;;;;;5073680;28;20031;-59
2022/05/02 00:56:11;;;;;;;6.05;4.65;;;12.00;63.50;;;;;;5072625;28;21170;-59
2022/05/02 00:58:37;;;;;;;6.07;5.03;;;12.00;63.60;;;;;;5073608;28;20025;-59
2022/05/02 01:01:04;;;;;;;6.75;4.60;;;12.00;63.50;;;;;;5071422;28;20396;-59
2022/05/02 01:03:31;;;;;;;6.22;4.80;;;12.00;63.80;;;;;;5072224;28;20099;-59
2022/05/02 01:08:42;;;;;;;5.63;4.53;;;12.00;63.50;;;;;;5073455;28;20515;-59
2022/05/02 01:11:08;;;;;;;5.00;4.50;;;11.90;63.70;;;;;;5073439;28;20032;-59
2022/05/02 01:13:39;;;;;;;6.50;4.97;;;11.90;63.80;;;;;;5071364;28;20038;-59
2022/05/02 01:16:23;;;;;;;6.20;4.75;;;11.90;63.80;;;;;;5059669;28;20485;-59
2022/05/02 01:18:52;;;;;;;5.18;4.45;;;11.90;63.60;;;;;;5067086;28;20086;-59
2022/05/02 01:21:19;;;;;;;6.03;4.63;;;11.80;63.40;;;;;;5065740;28;20039;-59
2022/05/02 01:23:48;;;;;;;5.50;4.50;;;11.80;63.40;;;;;;5066332;28;20040;-59
2022/05/02 01:26:14;;;;;;;6.57;4.30;;;11.80;63.30;;;;;;5067707;28;20036;-59
2022/05/02 01:28:42;;;;;;;5.60;4.32;;;11.80;63.00;;;;;;5064642;28;20494;-59
2022/05/02 01:31:07;;;;;;;5.07;4.20;;;11.70;62.70;;;;;;5065241;28;20029;-59
2022/05/02 01:33:35;;;;;;;4.53;3.90;;;11.70;62.50;;;;;;5065020;28;20538;-59
2022/05/02 01:36:00;;;;;;;5.75;4.13;;;11.70;62.30;;;;;;5056539;28;20025;-59
2022/05/02 01:38:26;;;;;;;5.32;4.25;;;11.70;62.30;;;;;;5062530;28;20051;-58
2022/05/02 01:40:52;;;;;;;6.00;4.10;;;11.70;62.10;;;;;;5063727;28;20384;-59
2022/05/02 01:43:17;;;;;;;4.35;3.60;;;11.70;61.80;;;;;;5067531;28;20074;-59
2022/05/02 01:45:43;;;;;;;5.45;3.95;;;11.70;61.60;;;;;;5064664;28;20050;-59
2022/05/02 01:48:09;;;;;;;4.93;3.85;;;11.80;61.30;;;;;;5063643;28;20021;-58
2022/05/02 01:50:34;;;;;;;4.95;4.15;;;11.80;61.00;;;;;;5060545;28;20020;-59
2022/05/02 01:53:00;;;;;;;5.00;3.67;;;11.80;61.00;;;;;;5061798;28;20036;-59
2022/05/02 01:55:26;;;;;;;5.05;3.95;;;11.70;60.60;;;;;;5063688;28;20877;-59
2022/05/02 01:57:51;;;;;;;5.32;3.80;;;11.80;60.50;;;;;;5066194;28;20035;-59
2022/05/02 02:00:17;;;;;;;4.35;3.78;;;11.80;60.60;;;;;;5071391;28;20130;-59
2022/05/02 02:02:43;;;;;;;5.60;4.35;;;11.80;60.80;;;;;;5071300;28;20021;-59
2022/05/02 02:07:53;;;;;;;3.97;3.58;;;11.70;61.10;;;;;;5071442;28;20494;-59
2022/05/02 02:10:18;;;;;;;5.20;4.25;;;11.70;61.00;;;;;;5062373;28;20032;-59
2022/05/02 02:12:44;;;;;;;6.68;4.00;;;11.60;61.10;;;;;;5068973;28;20035;-59
2022/05/02 02:15:14;;;;;;;5.35;4.40;;;11.60;61.20;;;;;;5071708;28;20547;-59
2022/05/02 02:17:41;;;;;;;5.13;4.55;;;11.60;61.40;;;;;;5070650;28;20406;-59
2022/05/02 02:20:08;;;;;;;5.00;4.50;;;11.50;61.50;;;;;;5072268;28;20495;-59
2022/05/02 02:22:34;;;;;;;6.50;4.78;;;11.50;62.00;;;;;;5071745;28;20052;-59
2022/05/02 02:24:59;;;;;;;6.22;5.22;;;11.40;62.00;;;;;;5071413;28;20024;-59
2022/05/02 02:27:25;;;;;;;5.07;4.50;;;11.40;62.40;;;;;;5063548;28;20032;-59
2022/05/02 02:29:51;;;;;;;7.18;4.90;;;11.40;62.40;;;;;;5071234;28;20029;-59
2022/05/02 02:32:16;;;;;;;6.57;5.05;;;11.30;62.50;;;;;;5071741;28;20029;-59
2022/05/02 02:34:42;;;;;;;6.55;5.35;;;11.30;62.60;;;;;;5071928;28;20103;-58
2022/05/02 02:37:07;;;;;;;7.47;5.80;;;11.30;62.80;;;;;;5070363;28;20038;-59
2022/05/02 02:39:33;;;;;;;7.80;6.38;;;11.20;63.00;;;;;;5072075;28;20028;-59
2022/05/02 02:41:59;;;;;;;10.70;7.45;;;11.20;63.10;;;;;;5071225;28;20062;-59
2022/05/02 02:44:24;;;;;;;9.00;7.78;;;11.30;64.00;;;;;;5069882;28;20023;-58
2022/05/02 02:46:50;;;;;;;10.13;8.13;;;11.30;63.80;;;;;;5071086;28;20043;-58
2022/05/02 02:49:16;;;;;;;10.65;9.00;;;11.30;63.80;;;;;;5071730;28;20090;-59
2022/05/02 02:51:41;;;;;;;12.60;8.50;;;11.30;63.70;;;;;;5071678;28;20032;-59
2022/05/02 02:54:07;;;;;;;11.15;8.75;;;11.30;64.00;;;;;;5071761;28;20028;-58
2022/05/02 02:56:33;;;;;;;9.40;8.05;;;11.40;64.20;;;;;;5072041;28;20036;-59
2022/05/02 02:58:58;;;;;;;13.10;8.48;;;11.40;64.30;;;;;;5071407;28;20043;-59
2022/05/02 03:01:24;;;;;;;13.15;9.77;;;11.40;64.40;;;;;;5066237;28;20108;-58
2022/05/02 03:03:50;;;;;;;18.88;13.45;;;11.50;64.40;;;;;;5053234;28;20025;-58
2022/05/02 03:06:16;;;;;;;18.38;14.45;;;11.50;64.60;;;;;;5070452;28;20029;-59
2022/05/02 03:08:41;;;;;;;19.95;14.82;;;11.60;64.60;;;;;;5071286;28;20040;-59
2022/05/02 03:11:08;;;;;;;19.00;13.75;;;11.70;64.50;;;;;;5071065;28;20115;-59
2022/05/02 03:13:34;;;;;;;19.05;13.52;;;11.80;64.50;;;;;;5071431;28;20490;-59
2022/05/02 03:16:00;;;;;;;16.10;12.52;;;11.80;64.50;;;;;;5060036;28;20397;-59
2022/05/02 03:18:26;;;;;;;16.15;12.20;;;12.00;64.60;;;;;;5064542;28;20032;-58
2022/05/02 03:20:52;;;;;;;16.27;12.50;;;12.10;64.70;;;;;;5071263;28;20403;-59
2022/05/02 03:23:18;;;;;;;18.75;12.25;;;12.20;64.60;;;;;;5071046;28;20044;-59
2022/05/02 03:25:44;;;;;;;18.58;13.30;;;12.40;64.10;;;;;;5071015;28;20025;-59
2022/05/02 03:28:10;;;;;;;17.95;12.85;;;12.50;63.80;;;;;;5071126;28;20027;-59
2022/05/02 03:30:36;;;;;;;16.77;11.73;;;12.60;63.70;;;;;;5071156;28;20032;-59
2022/05/02 03:33:02;;;;;;;15.60;11.50;;;12.70;63.50;;;;;;5067745;28;20492;-59
2022/05/02 03:35:28;;;;;;;15.13;10.65;;;12.90;63.10;;;;;;5069425;28;20068;-59
2022/05/02 03:37:54;;;;;;;15.02;10.82;;;13.00;63.10;;;;;;5070824;28;20032;-58
2022/05/02 03:40:19;;;;;;;9.55;7.75;;;13.10;62.90;;;;;;5070889;28;20029;-59
2022/05/02 03:42:45;;;;;;;8.95;6.93;;;13.30;62.70;;;;;;5070928;28;20020;-59
2022/05/02 03:45:11;;;;;;;8.18;5.93;;;13.40;62.20;;;;;;5070940;28;20025;-59
2022/05/02 03:47:37;;;;;;;7.95;6.68;;;13.60;61.80;;;;;;5070027;28;20016;-59
2022/05/02 03:50:03;;;;;;;6.55;5.63;;;13.80;61.30;;;;;;5070318;28;20107;-59
2022/05/02 03:52:29;;;;;;;9.93;6.18;;;14.00;61.30;;;;;;5066545;28;20123;-59
2022/05/02 03:54:54;;;;;;;7.35;5.57;;;14.20;61.60;;;;;;5070697;28;20112;-59
2022/05/02 03:57:20;;;;;;;7.38;6.50;;;14.40;61.70;;;;;;5071881;28;20056;-59
2022/05/02 03:59:47;;;;;;;8.63;6.05;;;14.80;61.70;;;;;;5074631;28;20032;-59
2022/05/02 04:02:13;;;;;;;6.60;5.90;;;15.20;61.60;;;;;;5074538;28;20073;-59
2022/05/02 04:04:39;;;;;;;7.20;5.72;;;15.70;61.10;;;;;;5074543;28;20024;-59
2022/05/02 04:07:05;;;;;;;7.22;5.22;;;16.40;60.70;;;;;;5070817;28;20029;-59
2022/05/02 04:09:30;;;;;;;7.13;5.00;;;17.20;59.50;;;;;;5065149;28;20025;-59
2022/05/02 04:11:56;;;;;;;8.45;4.63;;;18.00;57.70;;;;;;5070386;28;20029;-59
2022/05/02 04:14:22;;;;;;;5.50;4.55;;;18.90;55.90;;;;;;5071922;28;20036;-59
2022/05/02 04:16:49;;;;;;;5.80;4.47;;;19.50;54.40;;;;;;5074214;28;20028;-59
2022/05/02 04:19:16;;;;;;;5.70;4.30;;;20.10;53.20;;;;;;5061863;28;20035;-59
2022/05/02 04:21:42;;;;;;;5.80;4.20;;;20.60;52.00;;;;;;5072193;28;20078;-58
2022/05/02 04:24:08;;;;;;;5.45;4.25;;;20.80;51.00;;;;;;5073728;28;20045;-59
2022/05/02 04:26:35;;;;;;;6.93;4.75;;;21.00;50.40;;;;;;5068215;28;20028;-57
2022/05/02 04:29:01;;;;;;;6.45;4.68;;;21.10;50.20;;;;;;5074096;28;20108;-59
2022/05/02 04:31:26;;;;;;;6.55;4.97;;;21.30;49.70;;;;;;5057261;28;20033;-59
2022/05/02 04:33:52;;;;;;;7.90;5.25;;;21.50;49.20;;;;;;5065570;28;20024;-59
2022/05/02 04:36:18;;;;;;;6.38;4.88;;;21.50;48.90;;;;;;5071361;28;20033;-59
2022/05/02 04:38:43;;;;;;;8.02;5.28;;;21.70;48.70;;;;;;5055698;28;20461;-60
2022/05/02 04:41:13;;;;;;;8.38;5.97;;;21.90;48.50;;;;;;5055847;28;20508;-59
2022/05/02 04:43:40;;;;;;;8.75;5.78;;;22.30;48.10;;;;;;5065650;28;20088;-60
2022/05/02 04:46:05;;;;;;;9.68;6.20;;;22.70;48.40;;;;;;5074103;28;20404;-61
2022/05/02 04:48:31;;;;;;;7.90;5.32;;;23.00;47.40;;;;;;5073493;28;20017;-60
2022/05/02 04:50:56;;;;;;;8.32;5.38;;;23.20;46.90;;;;;;5069883;28;20025;-60
2022/05/02 04:53:22;;;;;;;6.60;5.05;;;23.50;46.70;;;;;;5067113;28;20033;-58
2022/05/02 04:55:48;;;;;;;5.18;4.03;;;23.80;46.60;;;;;;5058137;28;20044;-58
2022/05/02 04:58:14;;;;;;;5.07;4.13;;;24.10;46.00;;;;;;5067469;28;20112;-58
2022/05/02 05:00:41;;;;;;;4.05;3.60;;;24.40;45.50;;;;;;5058875;28;20035;-58
2022/05/02 05:03:07;;;;;;;4.10;3.15;;;24.80;44.90;;;;;;5064460;28;20420;-58
2022/05/02 05:05:32;;;;;;;3.90;3.50;;;25.10;44.00;;;;;;5061386;28;20102;-58
2022/05/02 05:07:58;;;;;;;4.82;3.63;;;25.20;43.30;;;;;;5063322;28;20229;-57
2022/05/02 05:10:24;;;;;;;5.28;4.07;;;25.20;42.70;;;;;;5063883;28;20028;-58
2022/05/02 05:13:02;;;;;;;5.03;3.70;;;25.10;42.30;;;;;;5060204;28;20533;-57
2022/05/02 05:18:34;;;;;;;4.53;3.70;;;24.50;42.10;;;;;;5061187;28;20048;-58
2022/05/02 05:21:14;;;;;;;5.50;3.60;;;24.10;42.50;;;;;;5059020;28;20070;-60
2022/05/02 05:24:04;;;;;;;4.35;3.78;;;24.00;42.60;;;;;;5068547;28;20048;-60
2022/05/02 05:27:08;;;;;;;4.30;3.67;;;24.30;42.20;;;;;;5066484;28;20063;-58
2022/05/02 05:30:06;;;;;;;3.88;3.42;;;24.50;41.80;;;;;;5061161;28;20289;-58
2022/05/02 05:32:49;;;;;;;5.80;4.28;;;24.50;41.60;;;;;;5067810;28;20119;-57
2022/05/02 05:35:21;;;;;;;5.43;4.22;;;24.10;41.90;;;;;;5064519;28;20033;-58
2022/05/02 05:38:02;;;;;;;5.28;4.35;;;23.60;42.30;;;;;;5064539;28;20021;-60
2022/05/02 05:40:33;;;;;;;4.35;3.70;;;23.10;43.10;;;;;;5065352;28;20551;-60
2022/05/02 05:43:14;;;;;;;5.78;4.15;;;22.70;43.30;;;;;;5064809;28;20480;-60
2022/05/02 05:45:57;;;;;;;6.50;4.32;;;22.20;43.90;;;;;;5061509;28;20035;-60
2022/05/02 05:48:26;;;;;;;5.60;4.53;;;21.80;44.20;;;;;;5055624;28;20747;-60
2022/05/02 05:51:15;;;;;;;7.35;4.88;;;21.40;44.50;;;;;;5055494;28;20017;-60
2022/05/02 05:53:54;;;;;;;5.82;4.28;;;21.10;44.50;;;;;;5042896;28;20115;-58
2022/05/02 05:56:31;;;;;;;6.63;4.45;;;20.80;44.80;;;;;;5059242;28;20042;-60
2022/05/02 05:59:16;;;;;;;7.10;4.60;;;20.60;45.60;;;;;;5060949;28;20032;-60
2022/05/02 06:02:13;;;;;;;5.95;4.30;;;20.30;46.70;;;;;;5056564;28;20025;-60
2022/05/02 06:04:41;;;;;;;6.35;4.90;;;20.00;47.50;;;;;;5052528;28;20585;-60
2022/05/02 06:07:08;;;;;;;5.55;4.50;;;19.80;48.40;;;;;;5056831;28;20029;-60
2022/05/02 06:09:36;;;;;;;5.88;4.95;;;19.50;49.00;;;;;;5052235;28;20024;-60
2022/05/02 06:12:04;;;;;;;7.03;5.20;;;19.30;50.00;;;;;;5061526;28;20032;-60
2022/05/02 06:20:13;;;;;;;5.65;4.70;;;18.80;51.50;;;;;;5054214;28;20035;-61
2022/05/02 06:22:40;;;;;;;5.18;4.53;;;18.60;51.80;;;;;;5059613;28;20475;-61
2022/05/02 06:25:07;;;;;;;5.65;4.68;;;18.60;52.30;;;;;;5046150;28;20053;-60
2022/05/02 06:27:34;;;;;;;6.65;5.00;;;18.50;52.60;;;;;;5053353;28;20055;-61
2022/05/02 06:30:03;;;;;;;6.47;5.13;;;18.40;52.80;;;;;;5052897;28;20531;-60
2022/05/02 06:32:30;;;;;;;5.80;5.05;;;18.30;53.20;;;;;;5046078;28;20028;-60
2022/05/02 06:34:57;;;;;;;5.88;4.63;;;18.20;53.70;;;;;;5051141;28;20188;-61
2022/05/02 06:37:58;;;;;;;6.38;5.43;;;18.10;54.00;;;;;;5052082;28;20033;-60
2022/05/02 06:40:45;;;;;;;5.88;4.72;;;18.00;54.30;;;;;;5036605;28;20469;-60
2022/05/02 06:43:27;;;;;;;6.40;5.38;;;17.90;54.30;;;;;;5048577;28;20095;-60
2022/05/02 06:45:56;;;;;;;5.93;5.25;;;17.90;54.70;;;;;;5050058;28;20516;-60
2022/05/02 06:48:45;;;;;;;6.15;5.43;;;17.80;54.60;;;;;;5055637;28;20032;-61
2022/05/02 06:51:16;;;;;;;8.00;5.65;;;17.80;54.80;;;;;;5043702;28;20039;-61
2022/05/02 06:53:56;;;;;;;6.60;5.70;;;17.80;55.10;;;;;;5047283;28;20028;-60
2022/05/02 06:56:37;;;;;;;6.20;5.50;;;17.70;55.30;;;;;;5041863;28;20038;-61
2022/05/02 06:59:09;;;;;;;7.15;5.88;;;17.70;55.60;;;;;;5049889;28;20024;-60
2022/05/02 07:01:52;;;;;;;6.60;5.40;;;17.70;55.80;;;;;;5051796;28;20105;-60
2022/05/02 07:04:56;;;;;;;6.30;5.07;;;17.80;55.80;;;;;;5047340;28;20035;-61
2022/05/02 07:07:46;;;;;;;7.18;5.78;;;17.80;55.70;;;;;;5032524;28;20033;-60
2022/05/02 07:10:24;;;;;;;6.93;5.70;;;17.80;56.00;;;;;;5050918;28;20101;-61
2022/05/02 07:13:15;;;;;;;6.68;5.50;;;17.80;55.90;;;;;;5042869;28;20028;-63
2022/05/02 07:15:49;;;;;;;8.60;6.22;;;17.80;56.30;;;;;;5045413;28;20119;-63
2022/05/02 07:19:05;;;;;;;11.15;9.45;;;17.80;56.10;;;;;;5049939;28;20063;-63
2022/05/02 07:21:43;;;;;;;9.43;7.47;;;17.80;55.20;;;;;;5052704;28;20029;-62
2022/05/02 07:24:42;;;;;;;11.00;8.00;;;17.80;55.10;;;;;;5057000;28;20079;-62
2022/05/02 07:27:31;;;;;;;10.20;8.10;;;17.80;54.90;;;;;;5048757;28;20033;-62
2022/05/02 07:30:00;;;;;;;9.30;7.57;;;17.80;54.70;;;;;;5052251;28;20068;-63
2022/05/02 07:32:27;;;;;;;9.57;6.68;;;17.80;54.30;;;;;;5047728;28;20560;-62
2022/05/02 07:34:54;;;;;;;8.13;6.85;;;17.80;54.50;;;;;;5045847;28;20032;-60
2022/05/02 07:37:22;;;;;;;7.78;5.72;;;17.80;54.60;;;;;;5050962;28;20128;-62
2022/05/02 07:39:49;;;;;;;7.03;5.90;;;17.80;55.00;;;;;;5054607;28;20036;-60
2022/05/02 07:42:16;;;;;;;7.15;5.93;;;17.80;55.20;;;;;;5048501;28;20017;-60
2022/05/02 07:44:44;;;;;;;7.95;5.93;;;17.80;55.10;;;;;;5047334;28;20024;-59
2022/05/02 07:47:11;;;;;;;7.40;6.43;;;17.80;54.70;;;;;;5056829;28;20114;-60
2022/05/02 07:49:39;;;;;;;6.03;5.30;;;17.80;54.80;;;;;;5048646;28;20040;-60
2022/05/02 07:52:07;;;;;;;6.72;5.88;;;17.80;54.60;;;;;;5050334;28;20052;-61
2022/05/02 07:54:38;;;;;;;5.38;4.68;;;17.90;54.50;;;;;;5046188;28;20528;-61
2022/05/02 07:57:05;;;;;;;6.65;5.13;;;17.90;54.20;;;;;;5046220;28;20025;-61
2022/05/02 07:59:35;;;;;;;5.93;4.53;;;17.90;54.10;;;;;;5040855;28;20036;-60
2022/05/02 08:02:01;;;;;;;5.70;4.90;;;17.90;53.90;;;;;;5037913;28;20765;-62
2022/05/02 08:04:26;;;;;;;6.60;4.95;;;17.90;53.90;;;;;;5047965;28;20095;-62
2022/05/02 08:07:00;;;;;;;7.03;4.28;;;17.90;53.50;;;;;;5046522;28;20025;-61
2022/05/02 08:09:41;;;;;;;5.88;4.50;;;17.90;53.60;;;;;;5045214;28;20062;-61
2022/05/02 08:12:39;;;;;;;4.53;3.20;;;17.90;53.20;;;;;;5051868;28;20480;-62
2022/05/02 08:15:11;;;;;;;4.38;3.25;;;17.90;52.80;;;;;;5057099;28;20067;-62
2022/05/02 08:17:42;;;;;;;4.80;3.58;;;17.90;52.40;;;;;;5042555;28;20036;-61
2022/05/02 08:20:08;;;;;;;;;;;17.90;52.10;;;;;;5049275;28;20036;-61
2022/05/02 08:29:07;;;;;;;2.85;2.50;;;17.90;51.40;;;;;;5051433;28;20039;-61
2022/05/02 08:31:57;;;;;;;2.60;2.40;;;17.90;50.80;;;;;;5045331;28;20580;-61
2022/05/02 08:34:26;;;;;;;3.08;2.60;;;18.00;50.40;;;;;;5045480;28;20519;-59
2022/05/02 08:37:18;;;;;;;2.45;2.25;;;17.90;50.20;;;;;;5043676;28;20143;-61
2022/05/02 08:40:05;;;;;;;2.20;2.03;;;18.00;49.20;;;;;;5054841;28;20032;-61
2022/05/02 08:42:34;;;;;;;2.10;1.90;;;17.90;48.70;;;;;;5047875;28;20032;-59
2022/05/02 08:45:10;;;;;;;3.20;1.90;;;18.00;48.20;;;;;;5042255;28;20032;-60
2022/05/02 08:48:09;;;;;;;2.30;2.10;;;17.90;47.70;;;;;;5049291;28;20860;-60
2022/05/02 08:51:03;;;;;;;1.95;1.83;;;17.90;47.40;;;;;;5054599;28;20029;-61
2022/05/02 08:53:53;;;;;;;2.20;2.00;;;17.90;47.20;;;;;;5049996;28;20032;-61
2022/05/02 08:56:22;;;;;;;1.50;1.40;;;17.90;46.70;;;;;;5047747;28;21121;-62
2022/05/02 08:59:23;;;;;;;2.60;1.98;;;17.90;46.50;;;;;;5048519;28;20028;-61
2022/05/02 09:02:13;;;;;;;1.98;1.85;;;17.90;46.00;;;;;;5043955;28;20523;-61
2022/05/02 09:04:47;;;;;;;2.53;1.92;;;17.90;46.00;;;;;;5040040;28;20410;-61
2022/05/02 09:07:37;;;;;;;2.08;1.67;;;17.90;45.70;;;;;;5041131;28;20112;-61
2022/05/02 09:10:10;;;;;;;1.83;1.73;;;17.90;45.70;;;;;;5043808;28;20111;-60
2022/05/02 09:12:41;;;;;;;2.65;1.98;;;17.90;45.30;;;;;;5045546;28;20037;-60
2022/05/02 09:15:13;;;;;;;1.70;1.60;;;17.90;45.10;;;;;;5055419;28;20064;-59
2022/05/02 09:18:03;;;;;;;1.90;1.70;;;17.80;45.10;;;;;;5051384;28;20028;-61
2022/05/02 09:20:51;;;;;;;1.95;1.75;;;17.90;44.70;;;;;;5045646;28;20059;-61
2022/05/02 09:23:34;;;;;;;1.95;1.75;;;17.80;44.60;;;;;;5040216;28;20045;-61
2022/05/02 09:26:03;;;;;;;1.60;1.50;;;17.80;44.30;;;;;;5045994;28;20058;-61
2022/05/02 09:28:49;;;;;;;3.05;2.15;;;17.80;44.30;;;;;;5044334;28;20029;-61
2022/05/02 09:31:25;;;;;;;1.73;1.63;;;17.80;44.30;;;;;;5040014;28;20093;-61
2022/05/02 09:33:51;;;;;;;2.63;2.10;;;17.90;44.60;;;;;;5045739;28;20027;-61
2022/05/02 09:36:19;;;;;;;1.60;1.50;;;17.90;44.50;;;;;;5044522;28;20025;-61
2022/05/02 09:39:34;;;;;;;3.17;2.20;;;17.90;44.20;;;;;;5046837;28;20110;-60
2022/05/02 09:42:16;;;;;;;2.42;2.17;;;17.90;43.90;;;;;;4994586;28;20032;-60
2022/05/02 09:51:02;;;;;;;2.20;2.00;;;17.80;44.10;;;;;;5038342;28;20411;-61
2022/05/02 09:53:40;;;;;;;1.85;1.75;;;17.80;44.40;;;;;;5041299;28;20433;-61
2022/05/02 09:59:17;;;;;;;2.63;2.20;;;17.70;44.10;;;;;;5042744;28;20046;-60
2022/05/02 10:01:47;;;;;;;2.42;2.00;;;17.70;44.50;;;;;;5046374;28;20549;-61
2022/05/02 10:04:36;;;;;;;2.50;2.17;;;17.70;44.80;;;;;;5051021;28;20029;-61
2022/05/02 10:07:10;;;;;;;3.13;2.28;;;17.70;44.80;;;;;;5047534;28;20028;-61
2022/05/02 10:09:42;;;;;;;2.20;1.90;;;17.70;44.60;;;;;;5042276;28;20411;-61
2022/05/02 10:12:25;;;;;;;2.42;1.88;;;17.70;44.40;;;;;;5046529;28;20043;-61
2022/05/02 10:14:59;;;;;;;2.60;2.00;;;17.70;44.50;;;;;;5042501;28;20021;-61
2022/05/02 10:18:19;;;;;;;2.22;1.90;;;17.70;44.50;;;;;;5043343;28;20048;-61
2022/05/02 10:21:00;;;;;;;2.00;1.90;;;17.70;44.30;;;;;;4954374;28;20110;-60
2022/05/02 10:23:44;;;;;;;2.38;2.17;;;17.60;44.60;;;;;;5038024;28;20554;-59
2022/05/02 10:26:34;;;;;;;2.38;1.83;;;17.60;44.60;;;;;;5053940;28;20528;-59
2022/05/02 10:29:19;;;;;;;1.88;1.77;;;17.60;44.50;;;;;;5045891;28;20024;-59
2022/05/02 10:31:55;;;;;;;2.42;2.00;;;17.50;44.70;;;;;;5044806;28;20123;-60
2022/05/02 10:34:24;;;;;;;2.50;2.30;;;17.50;45.00;;;;;;5050249;28;20496;-61
2022/05/02 10:36:53;;;;;;;2.25;2.00;;;17.40;44.90;;;;;;5054940;28;20078;-59
2022/05/02 10:39:39;;;;;;;2.03;1.90;;;17.40;45.10;;;;;;5046730;28;20032;-60
2022/05/02 10:42:06;;;;;;;2.28;2.00;;;17.50;45.40;;;;;;5048881;28;20016;-59
2022/05/02 10:45:01;;;;;;;2.40;2.10;;;17.40;45.60;;;;;;5047637;28;20032;-60
2022/05/02 10:47:41;;;;;;;2.70;2.20;;;17.40;45.50;;;;;;5041061;28;20045;-59
2022/05/02 10:50:31;;;;;;;2.20;1.65;;;17.40;45.50;;;;;;5047494;28;20060;-59
2022/05/02 10:53:11;;;;;;;2.28;1.92;;;17.30;45.50;;;;;;5043779;28;20035;-58
2022/05/02 10:55:39;;;;;;;2.37;1.90;;;17.30;45.60;;;;;;5050719;28;20036;-59
2022/05/02 10:58:10;;;;;;;3.15;2.70;;;17.30;45.70;;;;;;5048359;28;20351;-60
2022/05/02 11:00:56;;;;;;;1.88;1.77;;;17.30;45.90;;;;;;5051476;28;20024;-60
2022/05/02 11:03:36;;;;;;;2.28;2.08;;;17.30;45.70;;;;;;5048315;28;20044;-60
2022/05/02 11:06:07;;;;;;;1.98;1.88;;;17.20;45.60;;;;;;5042754;28;20021;-60
2022/05/02 11:08:42;;;;;;;2.40;2.20;;;17.20;45.60;;;;;;5047775;28;20034;-60
2022/05/02 11:11:11;;;;;;;2.90;2.47;;;17.20;45.30;;;;;;5045709;28;20090;-60
2022/05/02 11:13:39;;;;;;;4.22;2.40;;;17.20;45.30;;;;;;5053512;28;20043;-59
2022/05/02 11:16:31;;;;;;;2.35;1.90;;;17.30;45.70;;;;;;5049622;28;20055;-60
2022/05/02 11:22:27;;;;;;;2.17;1.80;;;17.30;45.10;;;;;;5052564;28;20075;-61
2022/05/02 11:25:01;;;;;;;2.03;1.92;;;17.30;45.50;;;;;;5056156;28;20756;-61
2022/05/02 11:27:54;;;;;;;2.17;1.90;;;17.30;45.30;;;;;;5054474;28;20021;-60
2022/05/02 11:30:25;;;;;;;2.13;2.00;;;17.30;45.40;;;;;;5051287;28;20475;-61
2022/05/02 11:33:05;;;;;;;2.20;1.77;;;17.30;45.10;;;;;;5052549;28;20029;-60
2022/05/02 11:35:35;;;;;;;2.17;1.93;;;17.30;45.00;;;;;;5055736;28;20086;-60
2022/05/02 11:38:22;;;;;;;2.15;1.92;;;17.30;45.30;;;;;;5054082;28;20761;-60
2022/05/02 11:40:58;;;;;;;2.88;2.60;;;17.30;45.60;;;;;;5055012;28;20032;-60
2022/05/02 11:43:28;;;;;;;2.05;1.90;;;17.30;45.50;;;;;;5055892;28;20393;-60
2022/05/02 11:46:02;;;;;;;2.42;2.17;;;17.30;45.50;;;;;;5051398;28;20718;-60
2022/05/02 11:48:48;;;;;;;2.10;1.80;;;17.30;45.20;;;;;;5055391;28;20102;-60
2022/05/02 11:51:37;;;;;;;2.38;1.90;;;17.40;45.50;;;;;;5045805;28;20757;-60
2022/05/02 11:54:12;;;;;;;2.38;2.17;;;17.40;45.30;;;;;;5043177;28;20049;-60
2022/05/02 11:57:05;;;;;;;2.20;2.00;;;17.40;46.10;;;;;;5049111;28;20095;-59
2022/05/02 12:00:05;;;;;;;2.10;1.90;;;17.40;45.70;;;;;;5049090;28;20404;-60
2022/05/02 12:02:35;;;;;;;1.88;1.77;;;17.40;45.30;;;;;;5053263;28;20025;-60
2022/05/02 12:05:09;;;;;;;2.28;1.98;;;17.40;45.30;;;;;;5050121;28;20039;-60
2022/05/02 12:07:38;;;;;;;1.80;1.70;;;17.40;45.50;;;;;;5049533;28;20150;-59
2022/05/02 12:10:08;;;;;;;2.33;2.10;;;17.40;45.60;;;;;;5048350;28;20054;-60
2022/05/02 12:12:34;;;;;;;2.45;2.03;;;17.40;45.30;;;;;;5052714;28;20040;-58
2022/05/02 12:15:02;;;;;;;2.10;2.00;;;17.40;45.20;;;;;;5056229;28;20032;-58
2022/05/02 12:17:28;;;;;;;1.90;1.80;;;17.40;45.00;;;;;;5050176;28;20035;-59
2022/05/02 12:19:53;;;;;;;2.05;1.85;;;17.40;45.80;;;;;;5051558;28;20056;-60
2022/05/02 12:22:26;;;;;;;1.98;1.83;;;17.40;45.20;;;;;;5048112;28;20115;-60
2022/05/02 12:24:55;;;;;;;2.55;1.85;;;17.40;45.00;;;;;;5052569;28;20052;-61
2022/05/02 12:27:26;;;;;;;2.25;2.10;;;17.40;45.20;;;;;;5053880;28;20071;-60
2022/05/02 12:29:57;;;;;;;2.85;2.28;;;17.30;45.20;;;;;;5050446;28;20033;-60
2022/05/02 12:32:30;;;;;;;1.75;1.65;;;17.40;45.50;;;;;;5053690;28;20068;-60
2022/05/02 12:34:57;;;;;;;1.92;1.73;;;17.40;45.70;;;;;;5052569;28;20480;-60
2022/05/02 12:37:32;;;;;;;1.63;1.52;;;17.40;46.20;;;;;;5049473;28;20037;-59
2022/05/02 12:40:14;;;;;;;1.80;1.70;;;17.40;46.10;;;;;;5044663;28;20032;-60
2022/05/02 12:42:45;;;;;;;1.88;1.77;;;17.40;45.90;;;;;;5046285;28;20016;-60
2022/05/02 12:45:13;;;;;;;2.88;1.95;;;17.40;45.90;;;;;;5052592;28;20396;-59
2022/05/02 12:47:47;;;;;;;1.73;1.63;;;17.40;45.70;;;;;;5055316;28;20115;-60
2022/05/02 12:50:17;;;;;;;2.22;2.00;;;17.40;45.40;;;;;;5052025;28;20032;-60
2022/05/02 12:52:46;;;;;;;2.10;1.90;;;17.40;45.30;;;;;;5047348;28;21112;-60
2022/05/02 12:55:13;;;;;;;2.00;1.80;;;17.40;45.40;;;;;;5053976;28;20063;-61
2022/05/02 13:00:31;;;;;;;3.10;1.92;;;17.40;45.40;;;;;;5051473;28;20051;-59
2022/05/02 13:03:11;;;;;;;1.80;1.70;;;17.40;45.40;;;;;;5053240;28;20037;-60
2022/05/02 13:05:59;;;;;;;2.50;2.03;;;17.40;45.30;;;;;;5050100;28;20028;-59
2022/05/02 13:08:42;;;;;;;1.75;1.65;;;17.40;45.10;;;;;;5055260;28;20155;-59
2022/05/02 13:11:12;;;;;;;1.75;1.65;;;17.40;45.20;;;;;;5046864;28;20032;-60
2022/05/02 13:13:47;;;;;;;1.77;1.67;;;17.40;45.50;;;;;;5046367;28;20033;-60
2022/05/02 13:16:41;;;;;;;2.20;2.00;;;17.30;46.20;;;;;;5045899;28;20451;-60
2022/05/02 13:19:07;;;;;;;1.73;1.63;;;17.40;46.80;;;;;;5044300;28;20115;-59
2022/05/02 13:21:34;;;;;;;1.80;1.70;;;17.30;46.90;;;;;;5053393;28;20059;-59
2022/05/02 13:24:07;;;;;;;1.63;1.52;;;17.30;46.90;;;;;;5047982;28;20648;-59
2022/05/02 13:26:54;;;;;;;2.38;2.17;;;17.30;46.60;;;;;;5041619;28;20029;-60
2022/05/02 13:29:35;;;;;;;2.20;1.90;;;17.30;46.50;;;;;;5045404;28;20159;-60
2022/05/02 13:32:04;;;;;;;2.05;1.90;;;17.30;46.40;;;;;;5048953;28;20043;-58
2022/05/02 13:34:51;;;;;;;1.88;1.77;;;17.30;47.00;;;;;;5048575;28;20036;-60
2022/05/02 13:37:26;;;;;;;2.30;1.95;;;17.30;46.50;;;;;;5045631;28;20020;-59
2022/05/02 13:40:10;;;;;;;2.08;1.95;;;17.30;46.40;;;;;;5046352;28;20064;-60
2022/05/02 13:43:04;;;;;;;1.77;1.67;;;17.30;46.50;;;;;;5050496;28;20702;-59
2022/05/02 13:45:37;;;;;;;1.80;1.70;;;17.30;46.80;;;;;;5049886;28;20047;-59
2022/05/02 13:48:24;;;;;;;1.63;1.50;;;17.30;46.50;;;;;;5054687;28;20074;-59
2022/05/02 13:50:58;;;;;;;1.73;1.63;;;17.30;46.70;;;;;;5050190;28;20032;-60